Time;durP1;ratioP1;P1;durP2;ratioP2;P2;SDS_P1;SDS_P2;PMS_P1;PMS_P2;Temp;Humidity;BMP_temperature;BMP_pressure;BME280_temperature;BME280_humidity;BME280_pressure;Samples;Min_cycle;Max_cycle;Signal;HPM_P1;HPM_P2
2021/09/06 00:00:12;;;;;;;31.83;21.35;;;18.20;99.90;;;;;;5072918;28;20020;-78
2021/09/06 00:02:39;;;;;;;31.60;20.73;;;18.20;99.90;;;;;;5070519;28;20120;-78
2021/09/06 00:05:06;;;;;;;29.67;20.45;;;18.20;99.90;;;;;;5071158;28;20021;-78
2021/09/06 00:07:33;;;;;;;31.85;21.02;;;18.20;99.90;;;;;;5072297;28;20449;-78
2021/09/06 00:10:13;;;;;;;33.60;21.27;;;18.10;99.90;;;;;;5072333;28;20373;-78
2021/09/06 00:12:38;;;;;;;28.50;19.80;;;18.20;99.90;;;;;;5071077;28;20056;-78
2021/09/06 00:15:05;;;;;;;31.63;19.63;;;18.10;99.90;;;;;;5072256;28;20055;-78
2021/09/06 00:17:30;;;;;;;29.70;19.60;;;17.90;99.90;;;;;;5053611;28;20024;-78
2021/09/06 00:19:56;;;;;;;26.85;17.75;;;17.90;99.90;;;;;;5072277;28;20020;-78
2021/09/06 00:22:21;;;;;;;28.38;17.10;;;17.90;99.90;;;;;;5070983;28;20499;-78
2021/09/06 00:24:47;;;;;;;25.75;16.88;;;17.90;99.90;;;;;;5072203;28;20028;-78
2021/09/06 00:27:13;;;;;;;27.38;17.88;;;17.90;99.90;;;;;;5078417;28;20028;-79
2021/09/06 00:29:39;;;;;;;26.88;18.80;;;17.90;99.90;;;;;;5073062;28;20059;-78
2021/09/06 00:32:05;;;;;;;29.00;19.27;;;17.90;99.90;;;;;;5071654;28;20480;-78
2021/09/06 00:34:31;;;;;;;30.67;20.27;;;17.90;99.90;;;;;;5071778;28;20067;-78
2021/09/06 00:36:56;;;;;;;30.05;20.65;;;17.80;99.90;;;;;;5071667;28;20098;-79
2021/09/06 00:39:22;;;;;;;31.55;20.23;;;17.80;99.90;;;;;;5072045;28;20028;-78
2021/09/06 00:41:47;;;;;;;26.85;18.35;;;17.80;99.90;;;;;;5053413;28;20483;-78
2021/09/06 00:44:13;;;;;;;25.98;18.38;;;17.80;99.90;;;;;;5071438;28;20024;-78
2021/09/06 00:46:44;;;;;;;27.13;18.42;;;17.80;99.90;;;;;;5087272;28;20122;-79
2021/09/06 00:49:10;;;;;;;26.10;17.88;;;17.60;99.90;;;;;;5053717;28;20052;-78
2021/09/06 00:51:35;;;;;;;25.48;17.45;;;17.60;99.90;;;;;;5053576;28;20105;-79
2021/09/06 00:54:01;;;;;;;25.48;18.33;;;17.60;99.90;;;;;;5071301;28;20032;-80
2021/09/06 00:56:27;;;;;;;23.83;17.95;;;17.60;99.90;;;;;;5071494;28;20028;-78
2021/09/06 00:58:53;;;;;;;26.40;18.80;;;17.60;99.90;;;;;;5073071;28;20024;-79
2021/09/06 01:01:18;;;;;;;26.17;18.75;;;17.60;99.90;;;;;;5072984;28;20029;-79
2021/09/06 01:03:44;;;;;;;29.25;17.77;;;17.60;99.90;;;;;;5072212;28;20035;-79
2021/09/06 01:06:10;;;;;;;23.95;18.38;;;17.50;99.90;;;;;;5079862;28;20043;-78
2021/09/06 01:08:35;;;;;;;22.42;15.65;;;17.50;99.90;;;;;;5092961;28;20441;-78
2021/09/06 01:11:01;;;;;;;22.77;16.90;;;17.40;99.90;;;;;;5093238;28;20080;-78
2021/09/06 01:13:26;;;;;;;26.17;18.17;;;17.50;99.90;;;;;;5075671;28;20051;-78
2021/09/06 01:15:52;;;;;;;25.55;18.85;;;17.40;99.90;;;;;;5073047;28;20029;-79
2021/09/06 01:18:18;;;;;;;28.30;19.05;;;17.40;99.90;;;;;;5072558;28;20028;-78
2021/09/06 01:20:44;;;;;;;32.28;20.95;;;17.40;99.90;;;;;;5072397;28;20487;-78
2021/09/06 01:23:10;;;;;;;30.60;20.48;;;17.40;99.90;;;;;;5072135;28;20361;-78
2021/09/06 01:25:36;;;;;;;32.38;20.50;;;17.40;99.90;;;;;;5071119;28;20049;-78
2021/09/06 01:28:02;;;;;;;31.00;20.80;;;17.30;99.90;;;;;;5086809;28;20443;-79
2021/09/06 01:30:28;;;;;;;25.80;17.92;;;17.30;99.90;;;;;;5071681;28;20013;-79
2021/09/06 01:32:54;;;;;;;27.05;17.98;;;17.30;99.90;;;;;;5072764;28;20024;-79
2021/09/06 01:35:20;;;;;;;23.67;17.00;;;17.20;99.90;;;;;;5075421;28;20008;-79
2021/09/06 01:37:45;;;;;;;26.13;18.38;;;17.20;99.90;;;;;;5075629;28;20028;-79
2021/09/06 01:40:12;;;;;;;27.73;18.83;;;17.20;99.90;;;;;;5057783;28;20103;-79
2021/09/06 01:42:38;;;;;;;32.22;18.92;;;17.20;99.90;;;;;;5075044;28;20572;-79
2021/09/06 01:45:04;;;;;;;26.77;19.15;;;17.20;99.90;;;;;;5074847;28;20024;-79
2021/09/06 01:47:30;;;;;;;27.15;18.08;;;17.20;99.90;;;;;;5075051;28;20481;-79
2021/09/06 01:49:57;;;;;;;29.58;19.27;;;17.10;99.90;;;;;;5074962;28;20024;-79
2021/09/06 01:52:23;;;;;;;28.13;18.85;;;17.10;99.90;;;;;;5075357;28;20021;-79
2021/09/06 01:54:49;;;;;;;26.92;17.67;;;17.10;99.90;;;;;;5075829;28;20009;-79
2021/09/06 01:57:14;;;;;;;27.00;19.13;;;17.00;99.90;;;;;;5075010;28;20399;-79
2021/09/06 01:59:40;;;;;;;28.77;19.70;;;17.00;99.90;;;;;;5075106;28;20021;-79
2021/09/06 02:02:06;;;;;;;30.92;20.40;;;17.00;99.90;;;;;;5074889;28;20499;-79
2021/09/06 02:04:31;;;;;;;31.55;20.38;;;16.90;99.90;;;;;;5074743;28;20029;-78
2021/09/06 02:06:57;;;;;;;29.58;20.58;;;16.90;99.90;;;;;;5075140;28;20123;-79
2021/09/06 02:09:22;;;;;;;34.10;20.65;;;16.90;99.90;;;;;;5074719;28;20042;-78
2021/09/06 02:11:48;;;;;;;26.73;16.98;;;16.90;99.90;;;;;;5076115;28;20499;-79
2021/09/06 02:14:14;;;;;;;23.88;15.95;;;16.90;99.90;;;;;;5074405;28;20029;-79
2021/09/06 02:16:39;;;;;;;23.38;15.77;;;16.80;99.90;;;;;;5070094;28;20077;-78
2021/09/06 02:19:05;;;;;;;25.17;16.42;;;16.80;99.90;;;;;;5077481;28;20040;-79
2021/09/06 02:21:30;;;;;;;25.48;17.52;;;16.70;99.90;;;;;;5096481;28;20036;-79
2021/09/06 02:24:01;;;;;;;27.85;17.48;;;16.70;99.90;;;;;;5077833;28;20016;-79
2021/09/06 02:26:27;;;;;;;25.33;17.23;;;16.70;99.90;;;;;;5096217;28;20384;-80
2021/09/06 02:28:52;;;;;;;22.58;16.52;;;16.70;99.90;;;;;;5074410;28;20009;-81
2021/09/06 02:31:18;;;;;;;24.65;18.13;;;16.70;99.90;;;;;;5074468;28;20024;-81
2021/09/06 02:33:43;;;;;;;23.60;15.75;;;16.60;99.90;;;;;;5091346;28;20103;-80
2021/09/06 02:36:10;;;;;;;17.70;14.18;;;16.60;99.90;;;;;;5075574;28;20025;-78
2021/09/06 02:38:36;;;;;;;18.88;14.32;;;16.50;99.90;;;;;;5075840;28;20036;-79
2021/09/06 02:41:02;;;;;;;18.90;13.68;;;16.50;99.90;;;;;;5085993;28;20020;-80
2021/09/06 02:43:27;;;;;;;20.98;15.65;;;16.50;99.90;;;;;;5097761;28;20032;-79
2021/09/06 02:45:53;;;;;;;24.77;17.27;;;16.50;99.90;;;;;;5100030;28;20020;-80
2021/09/06 02:48:19;;;;;;;25.83;17.45;;;16.50;99.90;;;;;;5094404;28;20028;-79
2021/09/06 02:50:44;;;;;;;30.08;19.35;;;16.50;99.90;;;;;;5090031;28;20028;-79
2021/09/06 02:53:10;;;;;;;27.20;19.05;;;16.40;99.90;;;;;;5075503;28;20024;-79
2021/09/06 02:55:35;;;;;;;29.50;20.15;;;16.40;99.90;;;;;;5074678;28;20034;-80
2021/09/06 02:58:01;;;;;;;29.02;20.05;;;16.30;99.90;;;;;;5075295;28;20060;-82
2021/09/06 03:00:27;;;;;;;32.95;20.45;;;16.30;99.90;;;;;;5086351;28;20028;-82
2021/09/06 03:02:53;;;;;;;33.97;20.88;;;16.30;99.90;;;;;;5094736;28;20380;-81
2021/09/06 03:05:19;;;;;;;32.85;20.85;;;16.30;99.90;;;;;;5095511;28;20031;-82
2021/09/06 03:07:44;;;;;;;30.15;19.73;;;16.30;99.90;;;;;;5095313;28;20093;-79
2021/09/06 03:10:10;;;;;;;30.95;19.13;;;16.30;99.90;;;;;;5095452;28;20024;-80
2021/09/06 03:12:36;;;;;;;27.33;18.05;;;16.20;99.90;;;;;;5095418;28;20059;-78
2021/09/06 03:15:02;;;;;;;31.77;20.23;;;16.20;99.90;;;;;;5074753;28;20029;-79
2021/09/06 03:17:27;;;;;;;33.58;19.80;;;16.20;99.90;;;;;;5073805;28;20066;-78
2021/09/06 03:19:53;;;;;;;32.75;21.42;;;16.10;99.90;;;;;;5074369;28;20070;-78
2021/09/06 03:22:19;;;;;;;32.80;21.27;;;16.10;99.90;;;;;;5076201;28;20033;-79
2021/09/06 03:24:45;;;;;;;30.67;20.17;;;16.10;99.90;;;;;;5078468;28;20028;-79
2021/09/06 03:27:10;;;;;;;31.88;20.10;;;16.10;99.90;;;;;;5073924;28;20099;-79
2021/09/06 03:29:37;;;;;;;28.50;20.20;;;16.10;99.90;;;;;;5074516;28;20025;-79
2021/09/06 03:32:03;;;;;;;26.98;18.10;;;16.00;99.90;;;;;;5056689;28;20495;-78
2021/09/06 03:34:28;;;;;;;30.98;20.50;;;16.00;99.90;;;;;;5075102;28;20595;-78
2021/09/06 03:36:54;;;;;;;30.45;20.50;;;16.00;99.90;;;;;;5074685;28;20032;-79
2021/09/06 03:39:20;;;;;;;32.65;20.40;;;16.00;99.90;;;;;;5074628;28;20036;-79
2021/09/06 03:41:46;;;;;;;30.92;20.52;;;16.00;99.90;;;;;;5073908;28;20025;-79
2021/09/06 03:44:12;;;;;;;28.95;19.35;;;16.00;99.90;;;;;;5074161;28;20453;-79
2021/09/06 03:46:37;;;;;;;32.33;21.27;;;16.00;99.90;;;;;;5084421;28;20032;-80
2021/09/06 03:49:03;;;;;;;33.15;20.27;;;15.90;99.90;;;;;;5094524;28;20028;-81
2021/09/06 03:51:28;;;;;;;26.40;16.83;;;15.90;99.90;;;;;;5074403;28;20536;-80
2021/09/06 03:53:54;;;;;;;27.30;18.17;;;15.90;99.90;;;;;;5073860;28;20028;-80
2021/09/06 03:56:20;;;;;;;28.38;18.05;;;15.90;99.90;;;;;;5073757;28;20067;-79
2021/09/06 03:58:45;;;;;;;23.33;16.05;;;15.80;99.90;;;;;;5074035;28;20056;-79
2021/09/06 04:01:11;;;;;;;25.05;17.42;;;15.80;99.90;;;;;;5074071;28;20453;-80
2021/09/06 04:03:36;;;;;;;28.27;18.90;;;15.80;99.90;;;;;;5072709;28;20229;-80
2021/09/06 04:06:02;;;;;;;30.33;20.25;;;15.70;99.90;;;;;;5073918;28;20035;-80
2021/09/06 04:08:28;;;;;;;34.55;21.20;;;15.70;99.90;;;;;;5073490;28;20069;-80
2021/09/06 04:10:54;;;;;;;32.78;20.98;;;15.60;99.90;;;;;;5074116;28;20073;-81
2021/09/06 04:13:19;;;;;;;35.17;22.13;;;15.60;99.90;;;;;;5073430;28;20028;-79
2021/09/06 04:15:47;;;;;;;36.95;22.55;;;15.60;99.90;;;;;;5075641;28;20036;-78
2021/09/06 04:18:16;;;;;;;34.65;22.08;;;15.60;99.90;;;;;;5073874;28;20021;-79
2021/09/06 04:20:42;;;;;;;31.23;20.48;;;15.60;99.90;;;;;;5074075;28;20466;-79
2021/09/06 04:23:08;;;;;;;26.13;17.88;;;15.50;99.90;;;;;;5073722;28;20101;-77
2021/09/06 04:25:33;;;;;;;27.33;18.52;;;15.50;99.90;;;;;;5073730;28;20052;-78
2021/09/06 04:27:59;;;;;;;27.35;15.82;;;15.50;99.90;;;;;;5073560;28;20396;-78
2021/09/06 04:30:25;;;;;;;21.40;14.00;;;15.50;99.90;;;;;;5073217;28;20027;-78
2021/09/06 04:32:50;;;;;;;20.45;13.85;;;15.40;99.90;;;;;;5072370;28;20028;-78
2021/09/06 04:35:16;;;;;;;28.00;17.38;;;15.40;99.90;;;;;;5073118;28;20028;-78
2021/09/06 04:37:41;;;;;;;26.42;18.08;;;15.40;99.90;;;;;;5055520;28;20043;-78
2021/09/06 04:40:08;;;;;;;29.45;18.15;;;15.40;99.90;;;;;;5089532;28;20031;-79
2021/09/06 04:42:33;;;;;;;28.65;18.52;;;15.30;99.90;;;;;;5093533;28;20030;-79
2021/09/06 04:44:59;;;;;;;29.45;19.35;;;15.40;99.90;;;;;;5088804;28;20095;-79
2021/09/06 04:47:25;;;;;;;32.88;19.65;;;15.30;99.90;;;;;;5073406;28;20435;-82
2021/09/06 04:49:50;;;;;;;33.67;20.63;;;15.20;99.90;;;;;;5073044;28;20031;-79
2021/09/06 04:52:16;;;;;;;35.13;21.33;;;15.20;99.90;;;;;;5073136;28;20024;-78
2021/09/06 04:54:41;;;;;;;33.70;21.75;;;15.20;99.90;;;;;;5072746;28;20033;-78
2021/09/06 04:57:07;;;;;;;32.63;19.92;;;15.20;99.90;;;;;;5073062;28;20058;-78
2021/09/06 04:59:33;;;;;;;34.05;21.58;;;15.20;99.90;;;;;;5074036;28;20020;-78
2021/09/06 05:01:58;;;;;;;40.25;21.92;;;15.10;99.90;;;;;;5086368;28;20060;-79
2021/09/06 05:04:24;;;;;;;30.98;20.15;;;15.10;99.90;;;;;;5054485;28;20031;-79
2021/09/06 05:06:49;;;;;;;31.52;18.33;;;15.10;99.90;;;;;;5088397;28;20040;-80
2021/09/06 05:09:15;;;;;;;27.45;17.92;;;15.10;99.90;;;;;;5071983;28;20178;-78
2021/09/06 05:11:40;;;;;;;25.75;17.50;;;15.10;99.90;;;;;;5072530;28;20028;-78
2021/09/06 05:14:06;;;;;;;31.90;18.42;;;15.10;99.90;;;;;;5072544;28;20028;-77
2021/09/06 05:16:32;;;;;;;29.15;18.27;;;15.10;99.90;;;;;;5072381;28;20036;-78
2021/09/06 05:18:57;;;;;;;25.88;16.52;;;15.10;99.90;;;;;;5072497;28;20385;-78
2021/09/06 05:21:23;;;;;;;24.38;16.52;;;15.00;99.90;;;;;;5054908;28;20036;-78
2021/09/06 05:23:49;;;;;;;21.02;14.13;;;15.00;99.90;;;;;;5081596;28;20021;-77
2021/09/06 05:26:14;;;;;;;20.67;13.60;;;14.90;99.90;;;;;;5057292;28;20101;-78
2021/09/06 05:28:40;;;;;;;23.70;14.40;;;15.00;99.90;;;;;;5087005;28;20116;-77
2021/09/06 05:31:08;;;;;;;24.67;15.25;;;14.90;99.90;;;;;;5072934;28;20024;-78
2021/09/06 05:33:34;;;;;;;26.70;15.55;;;15.00;99.90;;;;;;5072822;28;20090;-79
2021/09/06 05:36:00;;;;;;;24.60;16.50;;;14.90;99.90;;;;;;5072486;28;20482;-78
2021/09/06 05:38:25;;;;;;;22.08;15.40;;;14.90;99.90;;;;;;5072435;28;20055;-79
2021/09/06 05:40:51;;;;;;;26.48;16.63;;;14.80;99.90;;;;;;5072870;28;20027;-79
2021/09/06 05:43:17;;;;;;;22.50;15.90;;;14.80;99.90;;;;;;5054330;28;20461;-78
2021/09/06 05:45:43;;;;;;;23.25;14.88;;;14.90;99.90;;;;;;5072126;28;20039;-77
2021/09/06 05:48:08;;;;;;;26.23;16.90;;;14.90;99.90;;;;;;5091276;28;20115;-81
2021/09/06 05:50:34;;;;;;;24.90;14.88;;;14.80;99.90;;;;;;5084042;28;20137;-79
2021/09/06 05:53:00;;;;;;;24.02;16.10;;;14.70;99.90;;;;;;5072705;28;20103;-77
2021/09/06 05:55:25;;;;;;;26.25;16.67;;;14.80;99.90;;;;;;5071978;28;20415;-81
2021/09/06 05:57:52;;;;;;;30.45;17.90;;;14.80;99.90;;;;;;5072222;28;20036;-80
2021/09/06 06:00:18;;;;;;;40.58;22.52;;;14.90;99.90;;;;;;5072212;28;20459;-79
2021/09/06 06:02:45;;;;;;;42.15;23.10;;;14.90;99.90;;;;;;5056593;28;20030;-79
2021/09/06 06:05:11;;;;;;;42.25;21.20;;;14.90;99.90;;;;;;5068433;28;20025;-81
2021/09/06 06:07:37;;;;;;;39.13;22.23;;;14.80;99.90;;;;;;5071190;28;20048;-81
2021/09/06 06:10:03;;;;;;;40.80;21.60;;;14.90;99.90;;;;;;5072636;28;20020;-79
2021/09/06 06:12:30;;;;;;;34.97;22.08;;;14.90;99.90;;;;;;5072224;28;20051;-82
2021/09/06 06:14:56;;;;;;;44.85;24.63;;;15.00;99.90;;;;;;5071995;28;20518;-79
2021/09/06 06:17:22;;;;;;;35.42;21.77;;;15.00;99.90;;;;;;5072124;28;20034;-80
2021/09/06 06:19:47;;;;;;;37.63;21.67;;;15.00;99.90;;;;;;5074738;28;20096;-80
2021/09/06 06:22:13;;;;;;;38.25;22.70;;;15.00;99.90;;;;;;5076262;28;20111;-81
2021/09/06 06:24:39;;;;;;;39.03;21.60;;;15.00;99.90;;;;;;5076140;28;20473;-80
2021/09/06 06:27:04;;;;;;;39.17;22.52;;;15.00;99.90;;;;;;5064088;28;20035;-79
2021/09/06 06:29:30;;;;;;;39.38;21.80;;;15.10;99.90;;;;;;5077257;28;20536;-79
2021/09/06 06:31:56;;;;;;;34.85;21.85;;;15.10;99.90;;;;;;5076159;28;20471;-83
2021/09/06 06:34:22;;;;;;;36.92;22.05;;;15.10;99.90;;;;;;5073359;28;20024;-80
2021/09/06 06:36:48;;;;;;;35.42;22.48;;;15.10;99.90;;;;;;5067857;28;20095;-82
2021/09/06 06:39:13;;;;;;;34.92;20.85;;;15.20;99.90;;;;;;5063850;28;20101;-83
2021/09/06 06:41:39;;;;;;;33.60;21.17;;;15.20;99.90;;;;;;5065815;28;20030;-79
2021/09/06 06:44:05;;;;;;;35.75;20.15;;;15.20;99.90;;;;;;5071795;28;20025;-80
2021/09/06 06:46:31;;;;;;;34.92;20.95;;;15.30;99.90;;;;;;5070306;28;20037;-80
2021/09/06 06:48:57;;;;;;;32.65;20.45;;;15.30;99.90;;;;;;5066296;28;20540;-79
2021/09/06 06:51:23;;;;;;;30.55;20.10;;;15.30;99.90;;;;;;5068895;28;20020;-82
2021/09/06 06:53:48;;;;;;;36.30;22.65;;;15.30;99.90;;;;;;5066247;28;20032;-81
2021/09/06 06:56:14;;;;;;;34.05;21.70;;;15.40;99.90;;;;;;5066107;28;20108;-81
2021/09/06 06:58:40;;;;;;;38.28;24.75;;;15.40;99.90;;;;;;5067798;28;20469;-80
2021/09/06 07:01:05;;;;;;;36.33;25.10;;;15.50;99.90;;;;;;5071458;28;20033;-80
2021/09/06 07:03:31;;;;;;;41.83;25.05;;;15.50;99.90;;;;;;5069691;28;20036;-81
2021/09/06 07:05:57;;;;;;;38.90;25.42;;;15.60;99.90;;;;;;5072312;28;20013;-81
2021/09/06 07:08:22;;;;;;;45.92;27.90;;;15.60;99.90;;;;;;5067696;28;20028;-79
2021/09/06 07:10:48;;;;;;;48.72;29.05;;;15.60;99.90;;;;;;5064815;28;20028;-79
2021/09/06 07:13:14;;;;;;;41.78;26.02;;;15.60;99.90;;;;;;5069433;28;20478;-79
2021/09/06 07:15:40;;;;;;;45.72;28.52;;;15.70;99.90;;;;;;5078616;28;20103;-80
2021/09/06 07:18:08;;;;;;;48.67;28.55;;;15.80;99.90;;;;;;5045071;28;20031;-79
2021/09/06 07:20:34;;;;;;;48.38;30.60;;;15.90;99.90;;;;;;5064234;28;20017;-81
2021/09/06 07:23:00;;;;;;;50.67;30.58;;;15.90;99.90;;;;;;5067512;28;20032;-78
2021/09/06 07:25:25;;;;;;;48.15;30.58;;;16.00;99.90;;;;;;5059691;28;20389;-81
2021/09/06 07:27:51;;;;;;;51.17;30.42;;;16.00;99.90;;;;;;5070636;28;20480;-81
2021/09/06 07:30:17;;;;;;;51.75;31.90;;;16.10;99.90;;;;;;5064603;28;20146;-79
2021/09/06 07:32:44;;;;;;;45.40;28.33;;;16.20;99.90;;;;;;5067329;28;20040;-80
2021/09/06 07:35:11;;;;;;;47.78;27.92;;;16.20;99.90;;;;;;5070177;28;20574;-81
2021/09/06 07:37:37;;;;;;;54.33;34.50;;;16.30;99.90;;;;;;5070953;28;20035;-80
2021/09/06 07:40:03;;;;;;;53.90;32.33;;;16.30;99.90;;;;;;5060740;28;20067;-81
2021/09/06 07:42:29;;;;;;;54.55;33.03;;;16.40;99.90;;;;;;5067859;28;20038;-81
2021/09/06 07:44:54;;;;;;;58.13;35.40;;;16.50;99.90;;;;;;5068383;28;20020;-80
2021/09/06 07:47:20;;;;;;;57.35;36.33;;;16.60;99.90;;;;;;5069899;28;20087;-80
2021/09/06 07:49:47;;;;;;;68.10;42.03;;;16.70;99.90;;;;;;5065731;28;20017;-81
2021/09/06 07:52:13;;;;;;;63.45;40.22;;;16.80;99.90;;;;;;5071930;28;20078;-81
2021/09/06 07:54:39;;;;;;;65.88;39.63;;;16.90;99.90;;;;;;5070324;28;20051;-81
2021/09/06 07:57:05;;;;;;;69.60;41.50;;;16.90;99.90;;;;;;5068584;28;20079;-80
2021/09/06 07:59:31;;;;;;;72.07;43.00;;;17.00;99.90;;;;;;5065734;28;20025;-81
2021/09/06 08:01:57;;;;;;;65.72;40.58;;;17.10;99.90;;;;;;5071792;28;20086;-80
2021/09/06 08:04:22;;;;;;;66.95;41.75;;;17.30;99.90;;;;;;5057639;28;20032;-80
2021/09/06 08:06:48;;;;;;;69.10;41.13;;;17.40;99.90;;;;;;5067371;28;20424;-81
2021/09/06 08:09:14;;;;;;;71.65;41.80;;;17.50;99.90;;;;;;5065659;28;20024;-80
2021/09/06 08:11:45;;;;;;;69.57;41.35;;;17.70;99.90;;;;;;5065937;28;20024;-81
2021/09/06 08:14:12;;;;;;;68.95;41.20;;;17.70;99.90;;;;;;5074404;28;20020;-81
2021/09/06 08:16:38;;;;;;;78.70;45.03;;;17.90;99.90;;;;;;5064802;28;20082;-81
2021/09/06 08:19:03;;;;;;;72.85;44.08;;;18.00;99.90;;;;;;5069611;28;20059;-81
2021/09/06 08:21:30;;;;;;;80.68;45.50;;;18.20;99.90;;;;;;5069144;28;20546;-81
2021/09/06 08:23:57;;;;;;;59.95;36.90;;;18.20;99.90;;;;;;5069178;28;20024;-80
2021/09/06 08:26:24;;;;;;;69.03;43.08;;;18.20;99.90;;;;;;5064969;28;20023;-80
2021/09/06 08:28:49;;;;;;;68.47;39.03;;;18.50;99.90;;;;;;5067674;28;20028;-80
2021/09/06 08:31:15;;;;;;;80.68;46.50;;;18.50;99.90;;;;;;5070418;28;20029;-80
2021/09/06 08:33:41;;;;;;;75.32;42.58;;;18.70;99.90;;;;;;5049406;28;20465;-80
2021/09/06 08:36:09;;;;;;;72.22;43.00;;;18.80;99.90;;;;;;5071175;28;20068;-78
2021/09/06 08:38:35;;;;;;;68.80;38.83;;;18.90;99.90;;;;;;5065321;28;20377;-78
2021/09/06 08:41:01;;;;;;;66.88;40.28;;;19.10;99.90;;;;;;5050666;28;20017;-80
2021/09/06 08:43:27;;;;;;;59.22;38.00;;;19.20;99.90;;;;;;5069808;28;20017;-79
2021/09/06 08:45:53;;;;;;;68.07;40.08;;;19.30;99.90;;;;;;5058335;28;20024;-81
2021/09/06 08:48:19;;;;;;;64.70;37.78;;;19.30;99.90;;;;;;5046126;28;20024;-81
2021/09/06 08:50:44;;;;;;;69.20;36.88;;;19.50;99.90;;;;;;5067435;28;20107;-81
2021/09/06 08:53:10;;;;;;;65.90;35.50;;;19.60;99.90;;;;;;5070457;28;20389;-82
2021/09/06 08:55:39;;;;;;;65.07;38.28;;;19.70;99.90;;;;;;5064332;28;20021;-81
2021/09/06 08:58:04;;;;;;;63.17;34.28;;;19.80;99.90;;;;;;5067091;28;20028;-79
2021/09/06 09:00:31;;;;;;;53.10;32.05;;;19.90;99.90;;;;;;5068031;28;20044;-80
2021/09/06 09:02:57;;;;;;;57.97;30.80;;;19.90;99.90;;;;;;5064389;28;20031;-82
2021/09/06 09:05:23;;;;;;;47.45;28.73;;;20.10;99.90;;;;;;5067859;28;20024;-80
2021/09/06 09:07:58;;;;;;;54.22;29.88;;;20.20;99.90;;;;;;5055563;28;20412;-80
2021/09/06 09:10:32;;;;;;;44.72;26.48;;;20.30;99.90;;;;;;5060376;28;20027;-80
2021/09/06 09:13:09;;;;;;;41.67;27.38;;;20.40;99.90;;;;;;5071052;28;20028;-80
2021/09/06 09:15:37;;;;;;;37.53;24.17;;;20.40;99.90;;;;;;5063600;28;20082;-81
2021/09/06 09:18:08;;;;;;;39.70;25.63;;;20.50;99.90;;;;;;5063086;28;20528;-81
2021/09/06 09:20:43;;;;;;;35.45;24.17;;;20.60;99.90;;;;;;5048970;28;20460;-80
2021/09/06 09:23:09;;;;;;;36.13;23.65;;;20.70;99.90;;;;;;5068512;28;20346;-80
2021/09/06 09:25:35;;;;;;;33.00;21.30;;;20.80;99.90;;;;;;5068865;28;20027;-80
2021/09/06 09:28:02;;;;;;;34.38;20.67;;;21.00;99.90;;;;;;5067620;28;20066;-79
2021/09/06 09:30:32;;;;;;;33.20;20.27;;;21.10;99.90;;;;;;5068042;28;20025;-79
2021/09/06 09:33:16;;;;;;;34.95;20.23;;;21.20;99.90;;;;;;5076905;28;20411;-80
2021/09/06 09:35:42;;;;;;;35.38;21.00;;;21.30;99.90;;;;;;5069684;28;20036;-79
2021/09/06 09:38:11;;;;;;;30.00;19.13;;;21.50;99.90;;;;;;5068862;28;20029;-78
2021/09/06 09:40:39;;;;;;;35.00;21.40;;;21.60;99.90;;;;;;5071106;28;20024;-79
2021/09/06 09:43:06;;;;;;;29.30;18.35;;;21.80;99.90;;;;;;5068403;28;20016;-79
2021/09/06 09:45:32;;;;;;;29.50;19.80;;;22.00;99.90;;;;;;5067481;28;20029;-79
2021/09/06 09:47:59;;;;;;;32.38;19.73;;;22.10;99.90;;;;;;5061857;28;20033;-78
2021/09/06 09:50:28;;;;;;;35.97;23.73;;;22.20;99.90;;;;;;5065028;28;20025;-79
2021/09/06 09:52:55;;;;;;;32.30;21.65;;;22.30;99.90;;;;;;5065167;28;20021;-78
2021/09/06 09:55:22;;;;;;;30.45;20.95;;;22.50;99.90;;;;;;5070934;28;20013;-79
2021/09/06 09:57:48;;;;;;;31.67;19.67;;;22.60;99.90;;;;;;5071456;28;20104;-76
2021/09/06 10:00:15;;;;;;;33.97;21.38;;;22.70;99.90;;;;;;5074303;28;20157;-77
2021/09/06 10:02:55;;;;;;;31.45;20.67;;;22.90;99.90;;;;;;5071256;28;20036;-76
2021/09/06 10:05:31;;;;;;;33.92;22.58;;;23.00;99.90;;;;;;5067357;28;20106;-77
2021/09/06 10:07:59;;;;;;;40.22;21.23;;;23.10;99.90;;;;;;5068888;28;20073;-78
2021/09/06 10:10:26;;;;;;;32.35;20.95;;;23.30;99.90;;;;;;5075882;28;20070;-78
2021/09/06 10:13:12;;;;;;;30.17;19.33;;;23.40;99.90;;;;;;5070839;28;20036;-78
2021/09/06 10:15:40;;;;;;;30.60;19.55;;;23.50;99.90;;;;;;5065474;28;20032;-78
2021/09/06 10:18:22;;;;;;;34.22;21.20;;;23.60;99.90;;;;;;5057792;28;20393;-77
2021/09/06 10:20:54;;;;;;;36.08;20.63;;;23.70;99.90;;;;;;5067443;28;20025;-77
2021/09/06 10:23:20;;;;;;;26.23;19.23;;;23.80;99.90;;;;;;5075573;28;20161;-78
2021/09/06 10:25:46;;;;;;;27.00;18.70;;;23.90;99.90;;;;;;5071782;28;20191;-78
2021/09/06 10:28:14;;;;;;;26.98;19.30;;;24.00;99.90;;;;;;5055330;28;20063;-78
2021/09/06 10:30:42;;;;;;;23.83;17.25;;;24.00;99.90;;;;;;5064688;28;20414;-78
2021/09/06 10:33:22;;;;;;;24.77;16.90;;;24.00;99.90;;;;;;5074221;28;20480;-78
2021/09/06 10:35:48;;;;;;;27.90;18.15;;;24.10;99.90;;;;;;5063891;28;20028;-78
2021/09/06 10:38:16;;;;;;;26.48;17.35;;;24.30;99.90;;;;;;5065315;28;20036;-77
2021/09/06 10:40:45;;;;;;;23.90;17.98;;;24.30;99.90;;;;;;5072384;28;20024;-78
2021/09/06 10:43:16;;;;;;;22.27;15.90;;;24.30;99.90;;;;;;5070083;28;20477;-78
2021/09/06 10:45:43;;;;;;;20.45;14.65;;;24.40;99.90;;;;;;5064405;28;20025;-78
2021/09/06 10:48:16;;;;;;;20.95;16.17;;;24.50;99.90;;;;;;5055119;28;20059;-78
2021/09/06 10:50:44;;;;;;;23.55;17.55;;;24.60;99.90;;;;;;5063166;28;20087;-78
2021/09/06 10:53:19;;;;;;;22.35;15.75;;;24.70;99.90;;;;;;5073643;28;20420;-78
2021/09/06 10:55:49;;;;;;;23.70;15.68;;;24.80;99.90;;;;;;5070602;28;20138;-78
2021/09/06 10:58:16;;;;;;;27.67;18.17;;;24.60;99.90;;;;;;5060915;28;20456;-78
2021/09/06 11:00:51;;;;;;;22.65;17.65;;;24.60;99.90;;;;;;5067266;28;20034;-77
2021/09/06 11:03:17;;;;;;;24.42;16.23;;;24.60;99.90;;;;;;5063083;28;20525;-78
2021/09/06 11:05:52;;;;;;;28.88;18.92;;;24.60;99.90;;;;;;5047292;28;20036;-78
2021/09/06 11:08:25;;;;;;;25.20;17.38;;;24.70;99.90;;;;;;5067891;28;20033;-78
2021/09/06 11:10:51;;;;;;;;;;;24.80;99.90;;;;;;5068795;28;20620;-78
2021/09/06 11:13:16;;;;;;;18.27;13.35;;;24.80;99.90;;;;;;5073700;28;19912;-78
2021/09/06 11:15:42;;;;;;;24.88;16.83;;;24.90;99.90;;;;;;5071552;28;20024;-78
2021/09/06 11:18:09;;;;;;;26.33;19.10;;;25.00;99.90;;;;;;5063175;28;20060;-78
2021/09/06 11:20:37;;;;;;;25.65;18.17;;;25.20;99.90;;;;;;5065369;28;20055;-77
2021/09/06 11:23:05;;;;;;;28.50;19.35;;;25.30;99.90;;;;;;5070524;28;20074;-78
2021/09/06 11:25:32;;;;;;;28.67;20.10;;;25.40;99.90;;;;;;5070469;28;20112;-78
2021/09/06 11:28:13;;;;;;;26.08;18.77;;;25.50;99.90;;;;;;5049955;28;20037;-78
2021/09/06 11:30:41;;;;;;;26.70;18.17;;;25.50;99.90;;;;;;5048653;28;20016;-79
2021/09/06 11:33:10;;;;;;;25.00;18.30;;;25.70;99.90;;;;;;5063698;28;20384;-78
2021/09/06 11:35:41;;;;;;;21.83;16.15;;;25.50;99.90;;;;;;5076225;28;20089;-78
2021/09/06 11:38:07;;;;;;;22.52;16.02;;;25.60;99.90;;;;;;5070469;28;20032;-78
2021/09/06 11:40:34;;;;;;;26.98;19.75;;;25.60;99.90;;;;;;5069491;28;20016;-78
2021/09/06 11:43:01;;;;;;;21.15;16.13;;;25.70;99.90;;;;;;5068401;28;20127;-78
2021/09/06 11:45:27;;;;;;;23.80;16.80;;;25.80;99.90;;;;;;5047972;28;20036;-77
2021/09/06 11:47:59;;;;;;;19.52;15.30;;;25.90;99.90;;;;;;5074764;28;20058;-78
2021/09/06 11:50:32;;;;;;;23.92;17.77;;;26.00;99.80;;;;;;5075089;28;20024;-78
2021/09/06 11:53:01;;;;;;;21.13;15.55;;;25.90;99.70;;;;;;5066944;28;20021;-78
2021/09/06 11:55:27;;;;;;;22.38;15.57;;;26.00;99.90;;;;;;5074766;28;20020;-78
2021/09/06 11:57:52;;;;;;;24.85;17.20;;;25.90;99.90;;;;;;5068676;28;20024;-79
2021/09/06 12:00:23;;;;;;;19.90;13.85;;;26.00;99.90;;;;;;5072492;28;20027;-78
2021/09/06 12:02:50;;;;;;;19.88;14.43;;;26.00;99.90;;;;;;5055013;28;20024;-81
2021/09/06 12:05:17;;;;;;;26.92;17.08;;;26.10;99.90;;;;;;5069214;28;20483;-77
2021/09/06 12:07:47;;;;;;;18.23;14.90;;;26.20;98.90;;;;;;5070830;28;20093;-78
2021/09/06 12:10:26;;;;;;;22.67;15.73;;;26.30;99.90;;;;;;5069644;28;20023;-79
2021/09/06 12:12:59;;;;;;;21.52;14.27;;;26.30;99.90;;;;;;5064495;28;20029;-78
2021/09/06 12:15:24;;;;;;;28.08;18.48;;;26.30;99.90;;;;;;5073355;28;20074;-79
2021/09/06 12:17:50;;;;;;;26.35;18.73;;;26.50;99.90;;;;;;5071197;28;20389;-79
2021/09/06 12:20:16;;;;;;;23.90;16.70;;;26.40;99.90;;;;;;5070066;28;20032;-79
2021/09/06 12:22:52;;;;;;;22.80;17.10;;;26.40;99.90;;;;;;5068969;28;20028;-79
2021/09/06 12:25:24;;;;;;;20.15;15.32;;;26.40;99.00;;;;;;5070085;28;20024;-80